createdAt,value
2022-08-22T00:00:20.879Z,0.51
2022-08-22T00:01:16.670Z,1.18
2022-08-22T00:02:18.457Z,0.75
2022-08-22T00:03:14.186Z,0.73
2022-08-22T00:05:06.578Z,0.8
2022-08-22T00:06:05.002Z,0.92
2022-08-22T00:07:27.061Z,0.92
2022-08-22T00:08:13.426Z,0.88
2022-08-22T00:09:26.241Z,0.88
2022-08-22T00:10:04.922Z,0.76
2022-08-22T00:11:26.083Z,0.91
2022-08-22T00:12:17.824Z,0.91
2022-08-22T00:13:15.258Z,0.82
2022-08-22T00:14:20.453Z,0.82
2022-08-22T00:15:44.501Z,1.1
2022-08-22T00:16:19.871Z,1.19
2022-08-22T00:17:14.804Z,1.19
2022-08-22T00:18:22.793Z,0.74
2022-08-22T00:19:16.254Z,0.74
2022-08-22T00:20:30.177Z,0.5
2022-08-22T00:21:22.488Z,0.85
2022-08-22T00:22:26.186Z,0.85
2022-08-22T00:23:17.357Z,0.68
2022-08-22T00:24:20.912Z,0.68
2022-08-22T00:25:28.143Z,1.1
2022-08-22T00:26:14.262Z,1.1
2022-08-22T00:27:22.047Z,0.68
2022-08-22T00:28:18.606Z,0.68
2022-08-22T00:29:19.703Z,1.05
2022-08-22T00:30:13.720Z,1.12
2022-08-22T00:31:14.149Z,0.95
2022-08-22T00:32:22.318Z,0.83
2022-08-22T00:33:16.538Z,0.83
2022-08-22T00:34:20.632Z,0.83
2022-08-22T00:35:19.649Z,0.83
2022-08-22T00:36:16.883Z,0.83
2022-08-22T00:37:17.282Z,1.48
2022-08-22T00:38:16.592Z,1.08
2022-08-22T00:39:18.638Z,1.08
2022-08-22T00:40:05.931Z,0.89
2022-08-22T00:41:20.491Z,0.75
2022-08-22T00:42:33.804Z,0.75
2022-08-22T00:43:17.753Z,0.75
2022-08-22T00:44:24.511Z,0.86
2022-08-22T00:45:15.509Z,1.33
2022-08-22T00:46:14.780Z,1.33
2022-08-22T00:47:13.639Z,1.01
2022-08-22T00:48:22.499Z,0.97
2022-08-22T00:49:19.966Z,0.92
2022-08-22T00:50:14.299Z,0.92
2022-08-22T00:51:14.944Z,0.87
2022-08-22T00:52:21.142Z,0.87
2022-08-22T00:53:16.571Z,1.25
2022-08-22T00:54:20.325Z,1.19
2022-08-22T00:55:19.879Z,0.76
2022-08-22T00:56:21.843Z,0.76
2022-08-22T00:57:21.166Z,0.76
2022-08-22T00:58:18.735Z,0.66
2022-08-22T00:59:24.966Z,0.66
2022-08-22T01:00:10.622Z,0.66
2022-08-22T01:01:15.228Z,1.02
2022-08-22T01:02:17.052Z,1.02
2022-08-22T01:03:19.196Z,0.88
2022-08-22T01:04:17.899Z,0.88
2022-08-22T01:05:18.913Z,1.24
2022-08-22T01:06:19.736Z,0.64
2022-08-22T01:07:21.650Z,0.78
2022-08-22T01:08:14.487Z,0.88
2022-08-22T01:09:21.938Z,0.81
2022-08-22T01:10:07.342Z,0.81
2022-08-22T01:11:24.019Z,1.4
2022-08-22T01:12:22.038Z,1.4
2022-08-22T01:13:33.852Z,1.4
2022-08-22T01:14:05.624Z,0.99
2022-08-22T01:15:16.950Z,0.82
2022-08-22T01:16:17.159Z,0.82
2022-08-22T01:17:17.194Z,0.96
2022-08-22T01:18:24.451Z,0.96
2022-08-22T01:19:21.865Z,0.65
2022-08-22T01:20:19.065Z,0.65
2022-08-22T01:21:26.347Z,0.65
2022-08-22T01:22:19.834Z,1.32
2022-08-22T01:23:19.773Z,0.5
2022-08-22T01:24:19.554Z,0.5
2022-08-22T01:25:21.507Z,0.96
2022-08-22T01:26:22.882Z,0.79
2022-08-22T01:27:16.267Z,0.79
2022-08-22T01:28:25.403Z,1.06
2022-08-22T01:29:30.449Z,0.88
2022-08-22T01:30:18.909Z,0.88
2022-08-22T01:31:20.818Z,0.69
2022-08-22T01:32:18.110Z,0.69
2022-08-22T01:33:15.737Z,0.76
2022-08-22T01:34:07.118Z,0.56
2022-08-22T01:35:23.497Z,0.56
2022-08-22T01:36:20.154Z,1.18
2022-08-22T01:37:18.656Z,1.05
2022-08-22T01:38:18.752Z,0.82
2022-08-22T01:39:19.818Z,0.53
2022-08-22T01:40:05.194Z,0.53
2022-08-22T01:41:21.236Z,0.86
2022-08-22T01:42:20.735Z,0.82
2022-08-22T01:43:59.472Z,0.88
2022-08-22T01:44:12.241Z,0.88
2022-08-22T01:45:23.383Z,0.96
2022-08-22T01:46:23.607Z,0.96
2022-08-22T01:47:17.533Z,0.73
2022-08-22T01:48:19.204Z,0.73
2022-08-22T01:49:22.534Z,0.68
2022-08-22T01:50:17.419Z,0.54
2022-08-22T01:51:20.034Z,0.54
2022-08-22T01:52:21.811Z,0.95
2022-08-22T01:53:18.309Z,0.95
2022-08-22T01:54:18.833Z,0.66
2022-08-22T01:55:14.059Z,0.66
2022-08-22T01:56:14.976Z,0.81
2022-08-22T01:57:16.750Z,0.96
2022-08-22T01:58:18.155Z,1.27
2022-08-22T01:59:27.555Z,1.27
2022-08-22T02:00:37.565Z,1.34
2022-08-22T02:01:05.324Z,1.19
2022-08-22T02:02:25.812Z,0.91
2022-08-22T02:03:20.058Z,0.91
2022-08-22T02:04:20.126Z,0.89
2022-08-22T02:05:22.450Z,1.11
2022-08-22T02:06:19.147Z,0.71
2022-08-22T02:07:16.147Z,0.71
2022-08-22T02:08:18.618Z,1.04
2022-08-22T02:09:25.680Z,1.04
2022-08-22T02:10:08.442Z,1.09
2022-08-22T02:11:30.267Z,1.09
2022-08-22T02:12:21.617Z,1.09
2022-08-22T02:13:22.091Z,1.08
2022-08-22T02:14:20.724Z,0.79
2022-08-22T02:15:21.786Z,0.79
2022-08-22T02:16:17.192Z,0.96
2022-08-22T02:17:16.667Z,0.95
2022-08-22T02:18:04.719Z,0.77
2022-08-22T02:19:21.939Z,0.46
2022-08-22T02:20:22.489Z,0.46
2022-08-22T02:21:22.391Z,0.92
2022-08-22T02:22:20.837Z,0.86
2022-08-22T02:23:20.584Z,0.64
2022-08-22T02:24:20.257Z,0.64
2022-08-22T02:25:16.666Z,0.89
2022-08-22T02:26:13.296Z,0.89
2022-08-22T02:27:08.413Z,0.96
2022-08-22T02:28:17.158Z,1.12
2022-08-22T02:29:13.058Z,0.81
2022-08-22T02:30:18.688Z,1.06
2022-08-22T02:31:18.963Z,0.85
2022-08-22T02:32:18.466Z,0.76
2022-08-22T02:33:17.586Z,0.76
2022-08-22T02:34:14.442Z,0.73
2022-08-22T02:35:21.461Z,0.73
2022-08-22T02:36:16.138Z,0.73
2022-08-22T02:37:17.433Z,0.91
2022-08-22T02:38:24.029Z,1
2022-08-22T02:39:05.595Z,1
2022-08-22T02:40:05.948Z,1.01
2022-08-22T02:41:16.412Z,1.11
2022-08-22T02:42:13.342Z,0.71
2022-08-22T02:43:16.512Z,0.75
2022-08-22T02:44:15.397Z,0.75
2022-08-22T02:45:20.265Z,0.83
2022-08-22T02:46:25.119Z,1.08
2022-08-22T02:47:16.955Z,1.27
2022-08-22T02:48:15.791Z,1.27
2022-08-22T02:49:16.963Z,1.15
2022-08-22T02:50:19.587Z,0.89
2022-08-22T02:51:18.474Z,0.89
2022-08-22T02:52:18.282Z,0.89
2022-08-22T02:53:16.534Z,0.89
2022-08-22T02:54:14.161Z,0.97
2022-08-22T02:55:19.150Z,0.86
2022-08-22T02:56:22.125Z,0.84
2022-08-22T02:57:05.213Z,0.84
2022-08-22T02:58:23.672Z,1.55
2022-08-22T02:59:15.202Z,1.13
2022-08-22T03:00:34.611Z,1.13
2022-08-22T03:01:14.981Z,1.41
2022-08-22T03:02:18.462Z,1.41
2022-08-22T03:03:16.400Z,0.92
2022-08-22T03:04:18.027Z,1.44
2022-08-22T03:05:18.331Z,1.44
2022-08-22T03:06:24.292Z,0.95
2022-08-22T03:07:19.877Z,0.62
2022-08-22T03:08:17.487Z,1.38
2022-08-22T03:09:20.269Z,1.38
2022-08-22T03:10:05.416Z,1.38
2022-08-22T03:11:16.231Z,1.43
2022-08-22T03:12:20.446Z,0.77
2022-08-22T03:13:16.909Z,1.73
2022-08-22T03:14:24.062Z,1.16
2022-08-22T03:15:17.747Z,1.65
2022-08-22T03:16:15.766Z,0.76
2022-08-22T03:17:15.772Z,0.92
2022-08-22T03:18:19.084Z,0.92
2022-08-22T03:19:21.931Z,1.19
2022-08-22T03:20:23.518Z,0.96
2022-08-22T03:21:05.288Z,0.96
2022-08-22T03:22:19.964Z,0.79
2022-08-22T03:23:27.133Z,0.79
2022-08-22T03:24:17.183Z,0.79
2022-08-22T03:25:17.871Z,1.04
2022-08-22T03:26:23.995Z,1.11
2022-08-22T03:27:34.531Z,0.89
2022-08-22T03:28:14.578Z,0.89
2022-08-22T03:29:20.065Z,0.75
2022-08-22T03:30:16.126Z,1.09
2022-08-22T03:31:21.507Z,1.09
2022-08-22T03:32:19.318Z,0.94
2022-08-22T03:33:16.799Z,0.94
2022-08-22T03:34:18.155Z,1.25
2022-08-22T03:35:16.983Z,1.04
2022-08-22T03:36:18.098Z,1.04
2022-08-22T03:37:19.898Z,0.91
2022-08-22T03:38:22.387Z,1.14
2022-08-22T03:39:19.377Z,0.95
2022-08-22T03:40:05.795Z,0.95
2022-08-22T03:41:08.082Z,1.31
2022-08-22T03:42:16.504Z,0.82
2022-08-22T03:43:14.448Z,0.82
2022-08-22T03:44:17.385Z,1.42
2022-08-22T03:45:19.994Z,0.76
2022-08-22T03:46:20.318Z,0.77
2022-08-22T03:47:13.262Z,0.77
2022-08-22T03:48:20.729Z,0.99
2022-08-22T03:49:08.987Z,0.82
2022-08-22T03:50:19.739Z,1.09
2022-08-22T03:51:15.963Z,2.02
2022-08-22T03:52:21.228Z,1.31
2022-08-22T03:53:21.591Z,1.31
2022-08-22T03:54:16.824Z,0.93
2022-08-22T03:55:15.702Z,1.61
2022-08-22T03:56:18.496Z,0.76
2022-08-22T03:57:18.262Z,0.76
2022-08-22T03:58:30.111Z,0.86
2022-08-22T03:59:15.202Z,1.16
2022-08-22T04:00:18.151Z,1.16
2022-08-22T04:01:20.218Z,1.25
2022-08-22T04:02:44.438Z,1.16
2022-08-22T04:03:10.641Z,1.16
2022-08-22T04:04:15.132Z,1.08
2022-08-22T04:05:12.990Z,1.08
2022-08-22T04:06:20.248Z,1.43
2022-08-22T04:07:33.539Z,1.57
2022-08-22T04:08:18.075Z,1.57
2022-08-22T04:09:21.516Z,1.02
2022-08-22T04:10:06.221Z,1.11
2022-08-22T04:11:20.480Z,1.21
2022-08-22T04:12:19.303Z,1.66
2022-08-22T04:13:16.885Z,1.66
2022-08-22T04:14:14.994Z,1.5
2022-08-22T04:15:14.789Z,1.45
2022-08-22T04:16:23.588Z,1.45
2022-08-22T04:17:15.323Z,1.45
2022-08-22T04:18:15.622Z,1.11
2022-08-22T04:19:13.213Z,1.26
2022-08-22T04:20:21.098Z,1.26
2022-08-22T04:21:15.170Z,1.09
2022-08-22T04:22:18.045Z,1.09
2022-08-22T04:23:17.882Z,1.13
2022-08-22T04:24:14.197Z,0.82
2022-08-22T04:25:20.791Z,1.33
2022-08-22T04:26:14.604Z,1.33
2022-08-22T04:27:21.623Z,1.34
2022-08-22T04:28:11.507Z,1.34
2022-08-22T04:29:22.376Z,0.88
2022-08-22T04:30:18.016Z,1.01
2022-08-22T04:31:14.086Z,1
2022-08-22T04:32:17.894Z,1
2022-08-22T04:33:15.203Z,1.02
2022-08-22T04:34:20.344Z,1.02
2022-08-22T04:35:16.078Z,1.65
2022-08-22T04:36:23.405Z,1.01
2022-08-22T04:37:19.972Z,1.58
2022-08-22T04:38:22.591Z,1.58
2022-08-22T04:39:20.291Z,1.15
2022-08-22T04:40:05.661Z,1.15
2022-08-22T04:41:12.778Z,0.89
2022-08-22T04:42:34.428Z,1.22
2022-08-22T04:43:24.172Z,2.37
2022-08-22T04:44:16.830Z,2.37
2022-08-22T04:45:17.358Z,2.37
2022-08-22T04:46:20.346Z,1.22
2022-08-22T04:47:17.025Z,1.22
2022-08-22T04:48:20.775Z,1.09
2022-08-22T04:49:20.683Z,1.09
2022-08-22T04:50:21.550Z,1.12
2022-08-22T04:51:21.090Z,1.31
2022-08-22T04:52:16.673Z,1.31
2022-08-22T04:53:19.263Z,0.71
2022-08-22T04:54:17.803Z,0.71
2022-08-22T04:55:14.564Z,1.64
2022-08-22T04:56:20.250Z,1.25
2022-08-22T04:57:15.794Z,1.25
2022-08-22T04:58:16.681Z,1.66
2022-08-22T04:59:14.198Z,0.62
2022-08-22T05:00:15.584Z,1.12
2022-08-22T05:01:17.774Z,1.12
2022-08-22T05:02:26.388Z,0.91
2022-08-22T05:03:20.103Z,0.91
2022-08-22T05:04:18.032Z,0.91
2022-08-22T05:05:15.841Z,1.02
2022-08-22T05:06:17.789Z,1.02
2022-08-22T05:07:22.104Z,1.23
2022-08-22T05:08:14.158Z,1.36
2022-08-22T05:09:19.359Z,1.25
2022-08-22T05:10:14.025Z,1.25
2022-08-22T05:11:17.211Z,1.14
2022-08-22T05:12:20.180Z,1.14
2022-08-22T05:13:16.701Z,1.53
2022-08-22T05:14:19.883Z,1.53
2022-08-22T05:15:23.045Z,1.41
2022-08-22T05:16:16.613Z,1.02
2022-08-22T05:17:22.690Z,1.06
2022-08-22T05:18:18.438Z,1.06
2022-08-22T05:19:23.121Z,0.78
2022-08-22T05:20:20.082Z,1.57
2022-08-22T05:21:18.353Z,1.57
2022-08-22T05:22:14.785Z,1.27
2022-08-22T05:23:19.811Z,0.92
2022-08-22T05:24:18.497Z,1.32
2022-08-22T05:25:16.391Z,1.32
2022-08-22T05:26:16.980Z,0.88
2022-08-22T05:27:15.610Z,1.32
2022-08-22T05:28:14.066Z,1.36
2022-08-22T05:29:18.922Z,1.36
2022-08-22T05:30:15.376Z,1.28
2022-08-22T05:31:25.275Z,1.14
2022-08-22T05:32:18.961Z,0.89
2022-08-22T05:33:19.747Z,1.35
2022-08-22T05:34:19.386Z,1.13
2022-08-22T05:35:14.899Z,2.08
2022-08-22T05:36:15.050Z,2.08
2022-08-22T05:37:19.974Z,1.13
2022-08-22T05:38:20.486Z,1.03
2022-08-22T05:39:17.248Z,1.03
2022-08-22T05:40:05.508Z,1.74
2022-08-22T05:41:14.830Z,1.25
2022-08-22T05:42:15.790Z,1.25
2022-08-22T05:43:19.434Z,1.99
2022-08-22T05:44:12.498Z,0.85
2022-08-22T05:45:14.578Z,0.85
2022-08-22T05:46:14.825Z,1.02
2022-08-22T05:47:19.234Z,1.48
2022-08-22T05:48:18.535Z,1.4
2022-08-22T05:49:15.900Z,1.21
2022-08-22T05:50:17.692Z,1.21
2022-08-22T05:51:20.105Z,1.15
2022-08-22T05:52:12.311Z,1.15
2022-08-22T05:53:17.103Z,0.95
2022-08-22T05:54:19.440Z,1.27
2022-08-22T05:55:21.131Z,1.27
2022-08-22T05:56:22.578Z,0.99
2022-08-22T05:57:18.096Z,1.4
2022-08-22T05:58:14.078Z,1.4
2022-08-22T05:59:15.017Z,1.38
2022-08-22T06:00:21.631Z,1.31
2022-08-22T06:01:19.805Z,1.31
2022-08-22T06:02:21.079Z,1.17
2022-08-22T06:03:19.649Z,0.93
2022-08-22T06:04:16.363Z,2.17
2022-08-22T06:05:18.641Z,1.38
2022-08-22T06:06:15.846Z,1.38
2022-08-22T06:07:14.931Z,1.18
2022-08-22T06:08:17.630Z,2.94
2022-08-22T06:09:20.407Z,2.94
2022-08-22T06:10:05.573Z,2.94
2022-08-22T06:11:18.193Z,1.02
2022-08-22T06:12:24.286Z,1.02
2022-08-22T06:13:16.767Z,1.02
2022-08-22T06:14:16.065Z,1
2022-08-22T06:15:15.804Z,0.79
2022-08-22T06:16:18.095Z,1.24
2022-08-22T06:17:19.845Z,1.24
2022-08-22T06:18:23.320Z,1.31
2022-08-22T06:19:22.119Z,1.31
2022-08-22T06:20:17.704Z,1.88
2022-08-22T06:21:19.457Z,0.98
2022-08-22T06:22:20.689Z,2.28
2022-08-22T06:23:15.954Z,1.61
2022-08-22T06:24:13.602Z,1.61
2022-08-22T06:25:20.153Z,0.73
2022-08-22T06:26:23.053Z,1.35
2022-08-22T06:27:14.080Z,0.78
2022-08-22T06:28:15.944Z,1.52
2022-08-22T06:29:18.902Z,1.52
2022-08-22T06:30:20.482Z,1.52
2022-08-22T06:31:16.494Z,1.29
2022-08-22T06:33:01.051Z,1.12
2022-08-22T06:33:14.696Z,1.25
2022-08-22T06:34:19.899Z,1.52
2022-08-22T06:35:14.688Z,0.98
2022-08-22T06:36:22.598Z,0.98
2022-08-22T06:37:14.596Z,0.98
2022-08-22T06:38:17.452Z,0.61
2022-08-22T06:39:22.994Z,0.61
2022-08-22T06:40:06.424Z,1.39
2022-08-22T06:41:15.712Z,1.36
2022-08-22T06:42:19.029Z,0.98
2022-08-22T06:43:23.393Z,0.98
2022-08-22T06:44:16.969Z,0.89
2022-08-22T06:45:20.355Z,0.81
2022-08-22T06:46:13.675Z,0.81
2022-08-22T06:47:20.699Z,1.1
2022-08-22T06:48:19.925Z,1.1
2022-08-22T06:49:14.961Z,1.24
2022-08-22T06:50:15.873Z,0.75
2022-08-22T06:51:15.888Z,1.33
2022-08-22T06:52:16.860Z,0.85
2022-08-22T06:53:15.936Z,0.85
2022-08-22T06:54:14.049Z,0.61
2022-08-22T06:55:19.688Z,0.61
2022-08-22T06:56:16.252Z,1.02
2022-08-22T06:57:14.107Z,1.25
2022-08-22T06:58:20.352Z,1.25
2022-08-22T06:59:15.061Z,1.26
2022-08-22T07:00:25.462Z,1.06
2022-08-22T07:01:17.896Z,1.06
2022-08-22T07:02:20.126Z,1.52
2022-08-22T07:03:17.487Z,0.96
2022-08-22T07:04:21.260Z,0.98
2022-08-22T07:05:19.948Z,1.23
2022-08-22T07:06:16.526Z,1.23
2022-08-22T07:07:11.975Z,1.23
2022-08-22T07:08:13.291Z,0.57
2022-08-22T07:09:23.705Z,0.96
2022-08-22T07:10:06.695Z,0.89
2022-08-22T07:11:14.581Z,1.02
2022-08-22T07:12:21.859Z,1.02
2022-08-22T07:13:15.102Z,0.89
2022-08-22T07:14:13.616Z,0.89
2022-08-22T07:15:14.529Z,1.46
2022-08-22T07:16:15.710Z,0.72
2022-08-22T07:17:20.169Z,0.72
2022-08-22T07:18:16.789Z,0.72
2022-08-22T07:19:16.210Z,0.74
2022-08-22T07:20:19.482Z,1.02
2022-08-22T07:21:16.862Z,1.35
2022-08-22T07:22:19.177Z,1.6
2022-08-22T07:23:16.653Z,0.76
2022-08-22T07:24:15.700Z,0.76
2022-08-22T07:25:17.059Z,1.22
2022-08-22T07:26:17.642Z,1.22
2022-08-22T07:27:18.909Z,0.89
2022-08-22T07:28:18.319Z,0.89
2022-08-22T07:29:26.825Z,0.78
2022-08-22T07:30:17.293Z,1.26
2022-08-22T07:31:15.529Z,1.26
2022-08-22T07:32:18.892Z,0.98
2022-08-22T07:33:29.134Z,0.68
2022-08-22T07:34:22.667Z,0.7
2022-08-22T07:35:16.646Z,0.7
2022-08-22T07:36:22.953Z,0.89
2022-08-22T07:37:18.963Z,0.89
2022-08-22T07:38:13.776Z,1.37
2022-08-22T07:39:22.106Z,0.84
2022-08-22T07:40:06.105Z,0.84
2022-08-22T07:41:21.350Z,1.05
2022-08-22T07:42:21.131Z,1.05
2022-08-22T07:43:20.283Z,1.05
2022-08-22T07:44:20.162Z,1.06
2022-08-22T07:45:15.553Z,0.96
2022-08-22T07:46:15.702Z,0.55
2022-08-22T07:47:11.186Z,0.84
2022-08-22T07:48:27.870Z,0.82
2022-08-22T07:49:16.439Z,0.8
2022-08-22T07:50:19.253Z,0.8
2022-08-22T07:51:18.212Z,0.96
2022-08-22T07:52:17.959Z,0.96
2022-08-22T07:53:17.768Z,1.59
2022-08-22T07:54:20.362Z,1.59
2022-08-22T07:55:19.639Z,1.59
2022-08-22T07:56:16.198Z,0.69
2022-08-22T07:57:17.596Z,0.91
2022-08-22T07:58:20.683Z,0.91
2022-08-22T07:59:24.823Z,0.69
2022-08-22T08:00:18.947Z,0.69
2022-08-22T08:01:16.940Z,0.67
2022-08-22T08:02:16.092Z,0.78
2022-08-22T08:03:15.507Z,0.78
2022-08-22T08:04:17.695Z,0.55
2022-08-22T08:05:11.104Z,0.55
2022-08-22T08:06:06.295Z,0.53
2022-08-22T08:07:20.466Z,0.49
2022-08-22T08:08:17.928Z,0.73
2022-08-22T08:09:20.463Z,0.73
2022-08-22T08:10:08.906Z,0.68
2022-08-22T08:11:14.125Z,0.78
2022-08-22T08:12:29.300Z,1.24
2022-08-22T08:13:05.710Z,1.24
2022-08-22T08:14:19.323Z,0.47
2022-08-22T08:15:18.815Z,1.05
2022-08-22T08:16:18.964Z,0.65
2022-08-22T08:17:33.943Z,0.66
2022-08-22T08:18:20.459Z,0.66
2022-08-22T08:19:17.218Z,0.66
2022-08-22T08:20:26.457Z,0.93
2022-08-22T08:21:20.281Z,1.22
2022-08-22T08:22:27.496Z,1.22
2022-08-22T08:23:08.770Z,0.72
2022-08-22T08:24:24.507Z,0.72
2022-08-22T08:25:15.480Z,0.8
2022-08-22T08:26:18.891Z,0.8
2022-08-22T08:27:19.842Z,0.57
2022-08-22T08:28:21.120Z,0.45
2022-08-22T08:29:22.232Z,0.45
2022-08-22T08:30:05.557Z,0.75
2022-08-22T08:31:19.220Z,0.56
2022-08-22T08:32:18.111Z,0.56
2022-08-22T08:33:28.090Z,0.64
2022-08-22T08:34:20.332Z,0.7
2022-08-22T08:35:14.459Z,0.7
2022-08-22T08:36:13.967Z,0.29
2022-08-22T08:37:14.902Z,0.61
2022-08-22T08:38:05.819Z,0.75
2022-08-22T08:39:23.850Z,0.76
2022-08-22T08:40:05.940Z,0.99
2022-08-22T08:41:12.344Z,0.99
2022-08-22T08:42:17.763Z,0.6
2022-08-22T08:43:15.998Z,0.6
2022-08-22T08:44:23.479Z,0.45
2022-08-22T08:45:19.487Z,1.41
2022-08-22T08:46:23.209Z,0.51
2022-08-22T08:47:20.613Z,0.82
2022-08-22T08:48:20.310Z,0.54
2022-08-22T08:49:08.999Z,0.83
2022-08-22T08:50:20.858Z,0.71
2022-08-22T08:51:25.502Z,0.71
2022-08-22T08:52:16.491Z,0.71
2022-08-22T08:53:16.718Z,0.77
2022-08-22T08:54:22.323Z,0.68
2022-08-22T08:55:23.857Z,0.68
2022-08-22T08:56:21.719Z,0.39
2022-08-22T08:57:12.436Z,0.37
2022-08-22T08:58:21.825Z,0.92
2022-08-22T08:59:21.587Z,0.92
2022-08-22T09:00:18.213Z,0.92
2022-08-22T09:01:07.097Z,0.52
2022-08-22T09:02:23.570Z,0.58
2022-08-22T09:03:21.239Z,0.42
2022-08-22T09:04:18.529Z,0.42
2022-08-22T09:05:26.623Z,0.52
2022-08-22T09:06:18.817Z,0.52
2022-08-22T09:07:16.747Z,0.71
2022-08-22T09:08:29.756Z,0.6
2022-08-22T09:09:14.696Z,0.6
2022-08-22T09:10:06.144Z,0.6
2022-08-22T09:11:28.110Z,0.6
2022-08-22T09:12:17.194Z,0.94
2022-08-22T09:13:15.518Z,0.94
2022-08-22T09:14:20.539Z,0.36
2022-08-22T09:15:17.366Z,0.36
2022-08-22T09:16:22.716Z,0.67
2022-08-22T09:17:16.994Z,0.64
2022-08-22T09:18:20.315Z,0.64
2022-08-22T09:19:27.575Z,0.52
2022-08-22T09:20:19.749Z,0.52
2022-08-22T09:21:05.929Z,0.87
2022-08-22T09:22:18.902Z,0.87
2022-08-22T09:23:13.413Z,0.87
2022-08-22T09:24:20.984Z,0.29
2022-08-22T09:25:18.177Z,0.36
2022-08-22T09:26:14.446Z,0.36
2022-08-22T09:27:18.595Z,0.46
2022-08-22T09:28:30.416Z,0.46
2022-08-22T09:29:07.845Z,0.81
2022-08-22T09:30:19.663Z,0.81
2022-08-22T09:31:33.139Z,0.56
2022-08-22T09:32:21.183Z,0.72
2022-08-22T09:33:17.072Z,0.52
2022-08-22T09:34:25.994Z,0.74
2022-08-22T09:35:20.710Z,0.73
2022-08-22T09:36:12.024Z,0.73
2022-08-22T09:37:23.120Z,1.35
2022-08-22T09:38:17.500Z,1.35
2022-08-22T09:39:28.417Z,0.45
2022-08-22T09:40:05.329Z,0.62
2022-08-22T09:41:13.241Z,0.62
2022-08-22T09:42:17.550Z,0.42
2022-08-22T09:43:23.495Z,0.42
2022-08-22T09:44:27.640Z,0.44
2022-08-22T09:45:17.343Z,0.5
2022-08-22T09:46:20.848Z,0.48
2022-08-22T09:47:16.337Z,0.48
2022-08-22T09:48:19.309Z,0.34
2022-08-22T09:49:18.584Z,0.58
2022-08-22T09:50:20.145Z,0.64
2022-08-22T09:51:35.470Z,0.64
2022-08-22T09:52:38.869Z,0.64
2022-08-22T09:53:18.760Z,0.19
2022-08-22T09:54:21.035Z,0.45
2022-08-22T09:55:18.284Z,0.94
2022-08-22T09:56:17.847Z,0.94
2022-08-22T09:57:16.566Z,0.59
2022-08-22T09:58:16.880Z,0.59
2022-08-22T09:59:18.544Z,0.39
2022-08-22T10:00:17.065Z,0.39
2022-08-22T10:02:25.854Z,0.44
2022-08-22T10:03:20.258Z,0.45
2022-08-22T10:04:24.217Z,0.52
2022-08-22T10:05:09.974Z,0.52
2022-08-22T10:06:16.362Z,0.52
2022-08-22T10:07:14.150Z,0.59
2022-08-22T10:08:23.573Z,0.5
2022-08-22T10:09:31.571Z,0.65
2022-08-22T10:10:05.426Z,0.65
2022-08-22T10:11:18.258Z,0.94
2022-08-22T10:12:14.917Z,0.47
2022-08-22T10:13:15.702Z,0.47
2022-08-22T10:14:24.421Z,0.72
2022-08-22T10:15:19.443Z,0.72
2022-08-22T10:16:17.338Z,0.79
2022-08-22T10:17:23.858Z,0.79
2022-08-22T10:18:16.746Z,0.58
2022-08-22T10:19:19.997Z,0.57
2022-08-22T10:20:17.807Z,0.57
2022-08-22T10:21:22.855Z,0.68
2022-08-22T10:22:18.405Z,0.43
2022-08-22T10:23:16.731Z,0.43
2022-08-22T10:24:27.930Z,0.53
2022-08-22T10:25:14.901Z,0.81
2022-08-22T10:26:25.766Z,0.36
2022-08-22T10:27:13.440Z,0.36
2022-08-22T10:28:12.789Z,0.36
2022-08-22T10:29:20.295Z,0.45
2022-08-22T10:30:18.638Z,0.56
2022-08-22T10:31:25.983Z,0.56
2022-08-22T10:32:18.314Z,0.41
2022-08-22T10:33:24.857Z,0.41
2022-08-22T10:34:24.717Z,0.48
2022-08-22T10:35:17.315Z,0.52
2022-08-22T10:36:17.890Z,0.64
2022-08-22T10:37:15.010Z,0.64
2022-08-22T10:38:19.126Z,0.55
2022-08-22T10:39:24.632Z,0.55
2022-08-22T10:40:06.400Z,0.55
2022-08-22T10:41:13.966Z,0.34
2022-08-22T10:42:15.970Z,0.83
2022-08-22T10:43:30.924Z,0.39
2022-08-22T10:44:19.186Z,0.66
2022-08-22T10:45:37.826Z,0.95
2022-08-22T10:46:25.859Z,0.95
2022-08-22T10:47:05.574Z,0.52
2022-08-22T10:48:12.290Z,0.52
2022-08-22T10:49:16.444Z,2.16
2022-08-22T10:50:22.127Z,2.16
2022-08-22T10:51:25.078Z,0.62
2022-08-22T10:52:17.932Z,0.62
2022-08-22T10:53:04.678Z,0.94
2022-08-22T10:54:22.043Z,0.75
2022-08-22T10:55:15.569Z,0.42
2022-08-22T10:56:23.622Z,0.62
2022-08-22T10:57:23.014Z,0.5
2022-08-22T10:58:15.977Z,0.5
2022-08-22T10:59:14.339Z,0.88
2022-08-22T11:00:28.488Z,0.32
2022-08-22T11:01:41.642Z,0.88
2022-08-22T11:02:18.909Z,0.34
2022-08-22T11:03:25.602Z,0.28
2022-08-22T11:04:15.023Z,1.04
2022-08-22T11:05:13.340Z,0.42
2022-08-22T11:06:16.024Z,0.4
2022-08-22T11:07:21.483Z,0.52
2022-08-22T11:08:15.047Z,0.83
2022-08-22T11:09:22.127Z,0.41
2022-08-22T11:10:04.867Z,1.24
2022-08-22T11:11:19.714Z,0.97
2022-08-22T11:12:13.635Z,0.42
2022-08-22T11:13:19.267Z,0.42
2022-08-22T11:14:18.446Z,0.54
2022-08-22T11:15:36.902Z,0.54
2022-08-22T11:16:20.614Z,0.54
2022-08-22T11:17:33.866Z,0.38
2022-08-22T11:18:17.000Z,0.38
2022-08-22T11:19:18.758Z,0.42
2022-08-22T11:20:21.733Z,1.26
2022-08-22T11:21:18.453Z,0.58
2022-08-22T11:22:28.090Z,0.34
2022-08-22T11:23:19.156Z,0.58
2022-08-22T11:24:45.506Z,0.68
2022-08-22T11:25:07.309Z,0.68
2022-08-22T11:26:09.758Z,0.48
2022-08-22T11:27:17.667Z,0.41
2022-08-22T11:28:16.251Z,0.56
2022-08-22T11:29:16.665Z,0.66
2022-08-22T11:30:20.261Z,0.66
2022-08-22T11:31:17.093Z,0.76
2022-08-22T11:32:23.432Z,0.56
2022-08-22T11:33:20.139Z,0.56
2022-08-22T11:34:15.258Z,0.56
2022-08-22T11:35:19.651Z,0.47
2022-08-22T11:36:19.626Z,0.29
2022-08-22T11:37:19.003Z,0.29
2022-08-22T11:38:13.607Z,0.55
2022-08-22T11:39:27.061Z,0.55
2022-08-22T11:40:05.432Z,0.55
2022-08-22T11:41:18.542Z,0.44
2022-08-22T11:42:31.754Z,0.45
2022-08-22T11:43:06.281Z,0.45
2022-08-22T11:44:27.770Z,0.45
2022-08-22T11:45:18.894Z,0.72
2022-08-22T11:46:25.507Z,0.72
2022-08-22T11:47:16.673Z,0.91
2022-08-22T11:48:14.466Z,0.91
2022-08-22T11:49:15.871Z,0.42
2022-08-22T11:50:22.531Z,0.62
2022-08-22T11:51:15.811Z,0.61
2022-08-22T11:52:21.377Z,0.61
2022-08-22T11:53:16.498Z,0.46
2022-08-22T11:54:13.780Z,0.46
2022-08-22T11:55:19.779Z,0.59
2022-08-22T11:56:26.427Z,0.48
2022-08-22T11:57:05.692Z,0.4
2022-08-22T11:58:18.023Z,0.4
2022-08-22T11:59:15.653Z,0.67
2022-08-22T12:00:22.687Z,0.67
2022-08-22T12:01:19.480Z,0.52
2022-08-22T12:02:17.406Z,0.66
2022-08-22T12:03:25.256Z,1.11
2022-08-22T12:04:21.025Z,1.11
2022-08-22T12:05:28.405Z,0.74
2022-08-22T12:06:17.277Z,0.74
2022-08-22T12:07:17.220Z,0.71
2022-08-22T12:08:23.261Z,0.51
2022-08-22T12:09:25.777Z,0.51
2022-08-22T12:10:05.895Z,0.51
2022-08-22T12:11:11.558Z,0.69
2022-08-22T12:12:21.259Z,0.86
2022-08-22T12:13:16.624Z,0.53
2022-08-22T12:14:16.084Z,0.53
2022-08-22T12:15:21.253Z,0.59
2022-08-22T12:16:17.641Z,0.59
2022-08-22T12:18:00.935Z,0.88
2022-08-22T12:18:15.293Z,1.2
2022-08-22T12:19:12.865Z,0.61
2022-08-22T12:20:19.248Z,0.61
2022-08-22T12:21:12.367Z,0.45
2022-08-22T12:22:14.812Z,0.45
2022-08-22T12:23:18.826Z,0.34
2022-08-22T12:24:22.778Z,0.48
2022-08-22T12:25:19.517Z,0.74
2022-08-22T12:26:18.746Z,0.46
2022-08-22T12:27:27.951Z,0.46
2022-08-22T12:28:17.932Z,0.59
2022-08-22T12:29:23.305Z,0.69
2022-08-22T12:30:19.966Z,0.56
2022-08-22T12:31:22.082Z,0.75
2022-08-22T12:32:29.788Z,0.75
2022-08-22T12:33:17.329Z,0.45
2022-08-22T12:34:19.006Z,0.99
2022-08-22T12:35:16.703Z,0.56
2022-08-22T12:36:20.483Z,0.51
2022-08-22T12:37:13.305Z,0.56
2022-08-22T12:38:33.672Z,0.56
2022-08-22T12:39:26.177Z,0.66
2022-08-22T12:40:07.737Z,1.33
2022-08-22T12:41:34.650Z,1.33
2022-08-22T12:42:10.633Z,0.68
2022-08-22T12:43:23.879Z,0.68
2022-08-22T12:44:18.545Z,0.47
2022-08-22T12:45:24.214Z,0.47
2022-08-22T12:46:16.012Z,1.02
2022-08-22T12:47:14.258Z,1.02
2022-08-22T12:48:16.579Z,0.62
2022-08-22T12:49:17.973Z,0.62
2022-08-22T12:50:15.254Z,0.41
2022-08-22T12:51:20.453Z,0.41
2022-08-22T12:52:18.510Z,0.2
2022-08-22T12:53:22.158Z,0.3
2022-08-22T12:54:18.342Z,0.3
2022-08-22T12:55:17.611Z,0.55
2022-08-22T12:56:17.096Z,0.39
2022-08-22T12:57:26.125Z,0.42
2022-08-22T12:58:19.909Z,0.42
2022-08-22T12:59:19.722Z,0.88
2022-08-22T13:00:26.859Z,0.39
2022-08-22T13:01:23.200Z,0.98
2022-08-22T13:02:15.658Z,0.98
2022-08-22T13:03:17.606Z,0.92
2022-08-22T13:04:35.251Z,0.61
2022-08-22T13:05:22.102Z,0.34
2022-08-22T13:06:17.307Z,0.34
2022-08-22T13:07:13.662Z,0.41
2022-08-22T13:08:20.518Z,1.59
2022-08-22T13:09:30.810Z,0.74
2022-08-22T13:10:08.145Z,0.74
2022-08-22T13:11:25.570Z,0.74
2022-08-22T13:12:21.896Z,1.18
2022-08-22T13:13:37.356Z,0.5
2022-08-22T13:14:25.314Z,0.5
2022-08-22T13:15:18.102Z,0.59
2022-08-22T13:16:19.641Z,0.59
2022-08-22T13:17:26.829Z,0.67
2022-08-22T13:18:31.718Z,0.67
2022-08-22T13:19:15.740Z,0.46
2022-08-22T13:20:12.172Z,0.69
2022-08-22T13:21:17.267Z,0.41
2022-08-22T13:22:20.172Z,0.61